Time;durP1;ratioP1;P1;durP2;ratioP2;P2;SDS_P1;SDS_P2;PMS_P1;PMS_P2;Temp;Humidity;BMP_temperature;BMP_pressure;BME280_temperature;BME280_humidity;BME280_pressure;Samples;Min_cycle;Max_cycle;Signal;HPM_P1;HPM_P2
2022/10/18 00:01:39;;;;;;;15.70;8.10;;;18.00;7.70;;;;;;5085335;28;20395;-87
2022/10/18 00:07:27;;;;;;;15.90;7.97;;;18.00;8.00;;;;;;5095876;28;20678;-87
2022/10/18 00:10:34;;;;;;;24.60;7.53;;;18.00;10.00;;;;;;5094761;28;20416;-87
2022/10/18 00:16:22;;;;;;;17.40;7.33;;;18.00;8.60;;;;;;5080036;28;20392;-87
2022/10/18 00:22:58;;;;;;;14.60;8.03;;;18.00;8.90;;;;;;5088849;28;20414;-80
2022/10/18 00:25:46;;;;;;;23.27;7.77;;;18.10;8.70;;;;;;5082448;28;20537;-80
2022/10/18 00:28:34;;;;;;;18.77;7.97;;;18.00;9.00;;;;;;5084393;28;20467;-80
2022/10/18 00:34:59;;;;;;;39.00;9.47;;;18.00;8.80;;;;;;5086048;28;20785;-80
2022/10/18 00:40:47;;;;;;;22.40;7.57;;;18.00;8.40;;;;;;5084872;28;20391;-80
2022/10/18 00:46:36;;;;;;;34.37;7.80;;;18.00;9.50;;;;;;5087712;28;20200;-80
2022/10/18 00:55:46;;;;;;;19.93;7.37;;;18.00;9.80;;;;;;5080914;28;20918;-79
2022/10/18 01:01:33;;;;;;;19.70;7.80;;;18.10;10.60;;;;;;5074072;28;20378;-80
2022/10/18 01:07:52;;;;;;;20.50;7.30;;;18.00;10.90;;;;;;5094084;28;20184;-87
2022/10/18 01:24:13;;;;;;;19.60;8.17;;;17.80;16.20;;;;;;5076007;28;20422;-80
2022/10/18 01:27:28;;;;;;;24.70;8.03;;;17.80;16.20;;;;;;5084573;28;20411;-80
2022/10/18 01:40:13;;;;;;;24.33;7.87;;;17.70;19.10;;;;;;5081923;28;20441;-80
2022/10/18 01:42:52;;;;;;;28.00;8.70;;;17.70;21.50;;;;;;5077741;28;20473;-81
2022/10/18 01:48:40;;;;;;;24.77;9.00;;;17.70;23.50;;;;;;5081369;28;20402;-80
2022/10/18 01:54:48;;;;;;;27.50;8.60;;;17.70;24.10;;;;;;5079304;28;20431;-87
2022/10/18 02:00:41;;;;;;;22.37;8.23;;;17.70;24.00;;;;;;5074448;28;20463;-87
2022/10/18 02:07:24;;;;;;;27.47;8.00;;;17.70;23.60;;;;;;5086855;28;20927;-87
2022/10/18 02:10:14;;;;;;;35.60;8.93;;;17.70;22.40;;;;;;5087991;28;20458;-87
2022/10/18 02:19:29;;;;;;;22.40;9.10;;;17.70;23.00;;;;;;5073944;28;20390;-87
2022/10/18 02:22:31;;;;;;;23.20;8.97;;;17.70;23.60;;;;;;5084281;28;20431;-87
2022/10/18 02:25:40;;;;;;;27.03;10.83;;;17.70;25.20;;;;;;5092950;28;20997;-88
2022/10/18 02:28:40;;;;;;;30.30;9.40;;;17.70;26.40;;;;;;5093182;28;20483;-87
2022/10/18 02:34:46;;;;;;;29.30;9.73;;;17.80;27.20;;;;;;5080879;28;20364;-88
2022/10/18 02:41:10;;;;;;;20.40;8.47;;;17.70;26.60;;;;;;5086903;28;20471;-87
2022/10/18 02:44:10;;;;;;;27.63;8.13;;;17.70;26.20;;;;;;5087327;28;20429;-87
2022/10/18 02:49:58;;;;;;;25.03;8.73;;;17.70;27.00;;;;;;5073974;28;20368;-87
2022/10/18 02:52:23;;;;;;;26.30;9.70;;;17.70;26.30;;;;;;5089373;28;20438;-88
2022/10/18 02:55:10;;;;;;;17.70;9.70;;;17.70;28.50;;;;;;5079518;28;20287;-80
2022/10/18 02:58:10;;;;;;;20.13;10.00;;;17.70;26.70;;;;;;5086721;28;20173;-80
2022/10/18 03:04:41;;;;;;;21.70;9.10;;;17.60;27.00;;;;;;5088547;28;20433;-80
2022/10/18 03:07:28;;;;;;;25.87;10.33;;;17.50;29.50;;;;;;5079137;28;20458;-80
2022/10/18 03:10:46;;;;;;;22.30;10.30;;;17.40;28.90;;;;;;5090455;28;20418;-81
2022/10/18 03:19:55;;;;;;;26.60;9.90;;;17.40;28.90;;;;;;5076264;28;20383;-80
2022/10/18 03:25:43;;;;;;;41.80;10.07;;;17.30;34.60;;;;;;5081838;28;20224;-80
2022/10/18 03:32:10;;;;;;;26.17;10.20;;;17.40;35.90;;;;;;5075870;28;20974;-80
2022/10/18 03:41:20;;;;;;;29.90;12.50;;;17.30;48.30;;;;;;5093795;28;20832;-80
2022/10/18 03:44:40;;;;;;;22.37;12.40;;;17.20;48.40;;;;;;5085449;28;20483;-80
2022/10/18 03:47:40;;;;;;;19.27;11.50;;;17.30;48.40;;;;;;5079162;28;20205;-80
2022/10/18 03:50:46;;;;;;;22.53;12.03;;;17.40;48.50;;;;;;5080873;28;20415;-80
2022/10/18 03:57:10;;;;;;;22.57;11.30;;;17.50;48.80;;;;;;5088915;28;20394;-88
2022/10/18 04:00:10;;;;;;;20.03;10.70;;;17.50;48.60;;;;;;5083061;28;20395;-84
2022/10/18 04:02:58;;;;;;;40.10;11.60;;;17.60;48.70;;;;;;5077605;28;20438;-78
2022/10/18 04:05:40;;;;;;;36.40;11.20;;;17.60;48.70;;;;;;5079181;28;20476;-78
2022/10/18 04:08:17;;;;;;;41.57;10.27;;;17.60;48.80;;;;;;5079031;28;20421;-78
2022/10/18 04:14:22;;;;;;;40.33;10.27;;;17.50;48.60;;;;;;5083030;28;20435;-78
2022/10/18 04:17:34;;;;;;;19.53;8.53;;;17.50;48.60;;;;;;5078338;28;20390;-78
2022/10/18 04:23:24;;;;;;;20.63;5.03;;;17.50;48.60;;;;;;5078708;28;20516;-78
2022/10/18 04:26:10;;;;;;;11.70;5.10;;;17.40;48.60;;;;;;5086435;28;20494;-80
2022/10/18 04:29:10;;;;;;;13.13;5.60;;;17.40;48.50;;;;;;5083975;28;20425;-79
2022/10/18 04:31:52;;;;;;;14.83;6.27;;;17.40;48.50;;;;;;5084869;28;20414;-78
2022/10/18 04:34:46;;;;;;;11.60;6.20;;;17.20;48.40;;;;;;5081419;28;20418;-80
2022/10/18 04:40:40;;;;;;;23.20;6.40;;;17.30;48.60;;;;;;5085834;28;20526;-78
2022/10/18 04:43:40;;;;;;;18.93;6.63;;;17.30;48.40;;;;;;5074495;28;20417;-77
2022/10/18 04:46:46;;;;;;;26.70;6.50;;;17.30;48.40;;;;;;5084370;28;20437;-77
2022/10/18 04:49:16;;;;;;;17.23;6.27;;;17.30;48.40;;;;;;5082852;28;20463;-78
2022/10/18 04:55:05;;;;;;;21.77;7.27;;;17.40;48.50;;;;;;5082084;28;20400;-79
2022/10/18 04:58:04;;;;;;;15.50;6.43;;;17.40;48.50;;;;;;5105102;28;20883;-78
2022/10/18 05:00:46;;;;;;;16.27;6.20;;;17.40;48.50;;;;;;5077159;28;20398;-77
2022/10/18 05:06:34;;;;;;;14.20;6.10;;;17.40;48.50;;;;;;5084649;28;20496;-77
2022/10/18 05:09:00;;;;;;;18.33;6.37;;;17.40;48.50;;;;;;5085846;28;20480;-78
2022/10/18 05:11:28;;;;;;;13.03;6.37;;;17.40;48.50;;;;;;5090509;28;20192;-78
2022/10/18 05:14:10;;;;;;;11.90;6.00;;;17.40;48.50;;;;;;5081876;28;20652;-77
2022/10/18 05:16:52;;;;;;;17.23;7.77;;;17.40;48.60;;;;;;5087978;28;20426;-77
2022/10/18 05:19:18;;;;;;;24.13;6.90;;;17.40;48.50;;;;;;5076208;28;20783;-77
2022/10/18 05:21:44;;;;;;;18.27;6.97;;;17.40;48.50;;;;;;5077112;28;20414;-78
2022/10/18 05:27:40;;;;;;;27.00;6.90;;;17.40;48.50;;;;;;5073731;28;20623;-78
2022/10/18 05:30:10;;;;;;;14.40;6.50;;;17.40;48.60;;;;;;5080206;28;20789;-77
2022/10/18 05:32:46;;;;;;;14.90;6.80;;;17.40;48.50;;;;;;5086573;28;20413;-78
2022/10/18 05:35:40;;;;;;;19.40;6.67;;;17.40;48.50;;;;;;5073885;28;20422;-77
2022/10/18 05:38:16;;;;;;;17.97;6.13;;;17.40;48.50;;;;;;5084039;28;20433;-78
2022/10/18 05:40:42;;;;;;;13.33;6.03;;;17.40;48.70;;;;;;5079307;28;20934;-78
2022/10/18 05:43:08;;;;;;;13.53;6.10;;;17.40;48.60;;;;;;5094439;28;20369;-78
2022/10/18 05:45:52;;;;;;;18.53;7.00;;;17.40;48.50;;;;;;5078115;28;20358;-77
2022/10/18 05:48:52;;;;;;;21.00;6.90;;;17.40;48.50;;;;;;5086010;28;20182;-78
2022/10/18 05:51:18;;;;;;;14.97;6.33;;;17.30;48.40;;;;;;5085981;28;20389;-78
2022/10/18 05:53:53;;;;;;;10.37;6.03;;;17.40;48.50;;;;;;5087655;28;20424;-77
2022/10/18 05:56:40;;;;;;;14.60;5.80;;;17.40;48.50;;;;;;5082378;28;20418;-78
2022/10/18 05:59:34;;;;;;;11.70;5.80;;;17.40;48.70;;;;;;5088167;28;20871;-78
2022/10/18 06:02:11;;;;;;;16.10;6.37;;;17.40;48.50;;;;;;5074904;28;20440;-78
2022/10/18 06:05:10;;;;;;;12.70;6.50;;;17.40;52.60;;;;;;5077889;28;20512;-78
2022/10/18 06:07:46;;;;;;;17.67;6.53;;;17.40;48.50;;;;;;5079737;28;20425;-78
2022/10/18 06:10:16;;;;;;;14.40;6.40;;;17.40;48.50;;;;;;5080813;28;20408;-77
2022/10/18 06:13:10;;;;;;;19.77;6.07;;;17.30;48.40;;;;;;5085753;28;20789;-80
2022/10/18 06:16:04;;;;;;;8.23;5.97;;;17.30;48.60;;;;;;5084925;28;20422;-77
2022/10/18 06:22:04;;;;;;;19.70;6.13;;;17.20;48.30;;;;;;5074378;28;20409;-78
2022/10/18 06:24:30;;;;;;;12.80;6.10;;;17.20;48.30;;;;;;5076728;28;20956;-78
2022/10/18 06:27:10;;;;;;;17.37;6.53;;;17.20;48.30;;;;;;5087034;28;20393;-79
2022/10/18 06:29:40;;;;;;;23.40;7.27;;;17.30;48.40;;;;;;5080151;28;20723;-79
2022/10/18 06:32:10;;;;;;;16.23;6.53;;;17.30;48.40;;;;;;5097016;28;20391;-78
2022/10/18 06:34:36;;;;;;;15.20;6.40;;;17.30;48.40;;;;;;5083293;28;20538;-78
2022/10/18 06:37:10;;;;;;;20.50;6.93;;;17.30;48.40;;;;;;5085305;28;20469;-78
2022/10/18 06:39:42;;;;;;;15.90;6.40;;;17.40;52.70;;;;;;5090750;28;20651;-78
2022/10/18 06:42:07;;;;;;;15.10;6.40;;;17.50;48.70;;;;;;5081737;28;20462;-79
2022/10/18 06:44:40;;;;;;;12.23;6.00;;;17.50;48.60;;;;;;5077582;28;20973;-78
2022/10/18 06:47:10;;;;;;;11.80;6.47;;;17.50;48.60;;;;;;5090053;28;20187;-78
2022/10/18 06:49:58;;;;;;;11.33;6.20;;;17.50;48.60;;;;;;5076191;28;20461;-78
2022/10/18 06:52:58;;;;;;;12.70;6.10;;;17.50;48.70;;;;;;5086697;28;20793;-78
2022/10/18 06:55:45;;;;;;;13.60;6.40;;;17.50;48.80;;;;;;5081792;28;20469;-78
2022/10/18 06:58:40;;;;;;;23.83;6.60;;;17.40;48.50;;;;;;5091365;28;20795;-78
2022/10/18 07:01:14;;;;;;;13.13;5.57;;;17.40;48.50;;;;;;5087517;28;20445;-78
2022/10/18 07:03:53;;;;;;;14.30;5.50;;;17.30;48.60;;;;;;5088915;28;20435;-78
2022/10/18 07:06:28;;;;;;;7.87;4.40;;;17.20;48.30;;;;;;5088893;28;20801;-78
2022/10/18 07:09:10;;;;;;;13.80;5.07;;;17.20;48.30;;;;;;5079706;28;20430;-78
2022/10/18 07:12:10;;;;;;;8.23;4.73;;;17.30;48.40;;;;;;5086635;28;20425;-79
2022/10/18 07:14:40;;;;;;;11.73;4.50;;;17.30;48.40;;;;;;5087566;28;20438;-79
2022/10/18 07:17:10;;;;;;;7.43;4.00;;;17.40;48.60;;;;;;5076126;28;21058;-79
2022/10/18 07:19:40;;;;;;;13.60;3.97;;;17.40;52.60;;;;;;5081319;28;20394;-79
2022/10/18 07:26:11;;;;;;;18.90;4.40;;;17.60;48.70;;;;;;5082826;28;20883;-78
2022/10/18 07:28:42;;;;;;;12.90;3.83;;;17.60;48.60;;;;;;5077646;28;20858;-79
2022/10/18 07:31:09;;;;;;;7.10;4.13;;;17.70;48.80;;;;;;5088923;28;20465;-77
2022/10/18 07:34:13;;;;;;;5.80;3.50;;;17.70;48.80;;;;;;5087800;28;20892;-78
2022/10/18 07:36:41;;;;;;;8.30;3.70;;;17.80;48.90;;;;;;5075946;28;20423;-78
2022/10/18 07:39:28;;;;;;;8.37;3.67;;;17.90;49.00;;;;;;5089812;28;20812;-77
2022/10/18 07:41:53;;;;;;;8.40;4.37;;;17.90;49.00;;;;;;5081873;28;20474;-80
2022/10/18 07:44:40;;;;;;;8.87;3.80;;;18.00;44.70;;;;;;5077145;28;20453;-81
2022/10/18 07:47:10;;;;;;;12.67;4.07;;;18.00;39.00;;;;;;5082076;28;20193;-80
2022/10/18 07:50:10;;;;;;;8.70;4.50;;;18.00;34.10;;;;;;5077150;28;20415;-81
2022/10/18 07:55:59;;;;;;;10.83;4.37;;;18.30;28.40;;;;;;5082419;28;20419;-78
2022/10/18 07:58:24;;;;;;;8.80;5.10;;;18.40;29.10;;;;;;5089409;28;20439;-78
2022/10/18 08:01:03;;;;;;;12.00;4.83;;;18.60;27.10;;;;;;5083074;28;21406;-78
2022/10/18 08:03:42;;;;;;;11.00;4.90;;;18.70;23.80;;;;;;5081099;28;20193;-77
2022/10/18 08:06:11;;;;;;;8.00;4.97;;;18.90;18.50;;;;;;5086018;28;20968;-77
2022/10/18 08:08:52;;;;;;;15.37;4.93;;;19.00;16.00;;;;;;5084510;28;20421;-77
2022/10/18 08:11:46;;;;;;;9.30;5.00;;;19.10;13.80;;;;;;5078998;28;20494;-81
2022/10/18 08:14:40;;;;;;;19.40;5.93;;;19.30;11.60;;;;;;5077959;28;20387;-80
2022/10/18 08:17:42;;;;;;;19.30;6.10;;;19.40;6.20;;;;;;5082105;28;20928;-81
2022/10/18 08:20:10;;;;;;;12.13;5.60;;;19.40;1.30;;;;;;5079424;28;20760;-80
2022/10/18 08:22:40;;;;;;;8.53;5.93;;;19.40;1.00;;;;;;5094857;28;20396;-81
2022/10/18 08:25:11;;;;;;;9.87;6.27;;;19.50;1.00;;;;;;5079989;28;20805;-81
2022/10/18 08:28:12;;;;;;;11.73;6.93;;;19.60;1.00;;;;;;5087993;28;20421;-81
2022/10/18 08:30:40;;;;;;;15.40;8.10;;;19.80;1.00;;;;;;5087947;28;20516;-81
2022/10/18 08:33:10;;;;;;;22.27;7.97;;;19.90;1.00;;;;;;5086694;28;20738;-81
2022/10/18 08:35:40;;;;;;;14.20;7.60;;;19.80;1.00;;;;;;5081864;28;20428;-81
2022/10/18 08:38:11;;;;;;;12.60;7.90;;;19.70;1.00;;;;;;5074867;28;20463;-82
2022/10/18 08:40:43;;;;;;;13.80;7.43;;;19.70;1.00;;;;;;5081082;28;20456;-82
2022/10/18 08:43:36;;;;;;;20.20;8.33;;;19.70;1.00;;;;;;5074618;28;20433;-79
2022/10/18 08:46:12;;;;;;;20.47;9.73;;;19.80;1.00;;;;;;5084017;28;20979;-79
2022/10/18 08:48:48;;;;;;;14.13;8.20;;;19.80;1.00;;;;;;5076996;28;20426;-78
2022/10/18 08:51:38;;;;;;;19.97;8.67;;;19.80;1.00;;;;;;5085790;28;20479;-78
2022/10/18 08:54:12;;;;;;;14.43;8.40;;;19.90;1.00;;;;;;5101035;28;20390;-79
2022/10/18 08:56:41;;;;;;;14.70;9.10;;;20.00;1.00;;;;;;5082840;28;20442;-82
2022/10/18 08:59:40;;;;;;;17.67;9.37;;;20.00;1.00;;;;;;5092377;28;20406;-82
2022/10/18 09:02:48;;;;;;;23.70;10.30;;;19.90;1.00;;;;;;5115072;28;20391;-82
2022/10/18 09:05:44;;;;;;;14.73;8.10;;;19.90;1.00;;;;;;5020262;28;20494;-82
2022/10/18 09:12:04;;;;;;;14.50;6.30;;;20.10;1.00;;;;;;5009538;28;20470;-81
2022/10/18 09:15:04;;;;;;;10.67;5.43;;;20.20;1.00;;;;;;5009083;28;20422;-81
2022/10/18 09:17:43;;;;;;;4.47;3.83;;;20.20;1.00;;;;;;5002883;28;20403;-82
2022/10/18 09:20:40;;;;;;;9.83;3.27;;;20.30;1.00;;;;;;5001373;28;20484;-82
2022/10/18 09:23:23;;;;;;;3.53;2.90;;;20.10;1.00;;;;;;4992570;28;20487;-82
2022/10/18 09:26:16;;;;;;;3.93;2.97;;;20.20;1.00;;;;;;4979896;28;20442;-81
2022/10/18 09:29:12;;;;;;;8.50;2.73;;;20.30;1.00;;;;;;4998494;28;20499;-81
2022/10/18 09:32:22;;;;;;;4.60;2.10;;;20.50;1.00;;;;;;5011776;28;20436;-81
2022/10/18 09:42:10;;;;;;;2.40;1.60;;;20.60;1.00;;;;;;5022853;28;20458;-78
2022/10/18 09:45:14;;;;;;;3.23;1.50;;;20.50;1.00;;;;;;5075666;28;20460;-78
2022/10/18 09:48:00;;;;;;;7.50;1.70;;;20.40;1.00;;;;;;5079157;28;20489;-78
2022/10/18 09:51:11;;;;;;;1.70;1.60;;;20.50;1.00;;;;;;5074599;28;20422;-78
2022/10/18 09:53:56;;;;;;;1.70;1.60;;;20.80;1.00;;;;;;5078753;28;20788;-78
2022/10/18 09:56:58;;;;;;;1.60;1.50;;;21.10;1.00;;;;;;5101958;28;20403;-79
2022/10/18 10:00:16;;;;;;;3.77;1.50;;;21.10;1.00;;;;;;5084123;28;20415;-78
2022/10/18 10:02:47;;;;;;;4.17;1.73;;;21.10;1.00;;;;;;5080475;28;20458;-79
2022/10/18 10:05:35;;;;;;;1.50;1.40;;;21.30;1.00;;;;;;5086308;28;20504;-78
2022/10/18 10:08:01;;;;;;;1.73;1.20;;;21.30;1.00;;;;;;5073252;28;20402;-77
2022/10/18 10:10:29;;;;;;;4.97;0.90;;;21.20;1.00;;;;;;5073408;28;20485;-78
2022/10/18 10:17:02;;;;;;;1.40;1.30;;;21.10;1.00;;;;;;5086717;28;20407;-78
2022/10/18 10:23:13;;;;;;;1.57;1.00;;;21.30;1.00;;;;;;5078775;28;20836;-77
2022/10/18 10:25:42;;;;;;;1.00;0.80;;;21.50;1.00;;;;;;5084941;28;20476;-78
2022/10/18 10:28:39;;;;;;;4.00;0.90;;;21.60;1.00;;;;;;5075436;28;20404;-80
2022/10/18 10:34:28;;;;;;;2.50;0.80;;;21.40;1.00;;;;;;5006887;28;20424;-82
2022/10/18 10:37:46;;;;;;;0.70;0.70;;;21.40;1.00;;;;;;5011266;28;20401;-82
2022/10/18 10:40:48;;;;;;;2.63;1.10;;;21.60;1.00;;;;;;5009108;28;20452;-82
2022/10/18 10:43:32;;;;;;;3.03;0.90;;;21.80;1.00;;;;;;4992241;28;20490;-83
2022/10/18 10:46:18;;;;;;;4.87;0.70;;;22.00;1.00;;;;;;5009456;28;20458;-82
2022/10/18 10:49:22;;;;;;;4.20;0.80;;;22.10;1.00;;;;;;5010862;28;20502;-83
2022/10/18 10:52:28;;;;;;;3.33;1.40;;;22.20;1.00;;;;;;5011043;28;20558;-83
2022/10/18 10:55:35;;;;;;;9.90;1.40;;;22.40;1.00;;;;;;5011354;28;20423;-82
2022/10/18 10:58:16;;;;;;;0.87;0.70;;;22.30;1.00;;;;;;4984835;28;20582;-83
2022/10/18 11:04:28;;;;;;;5.13;0.80;;;22.30;1.00;;;;;;5003334;28;20485;-83
2022/10/18 11:10:21;;;;;;;5.13;0.97;;;22.70;1.00;;;;;;5063865;28;20970;-83
2022/10/18 11:13:03;;;;;;;0.90;0.83;;;22.60;1.00;;;;;;5062090;28;20392;-82
2022/10/18 11:16:11;;;;;;;1.07;0.80;;;22.60;1.00;;;;;;5039121;28;20467;-84
2022/10/18 11:22:01;;;;;;;1.73;0.80;;;23.00;1.00;;;;;;5059512;28;20771;-83
2022/10/18 11:28:04;;;;;;;2.20;0.80;;;23.30;1.00;;;;;;5066575;28;20789;-82
2022/10/18 11:37:23;;;;;;;2.37;0.90;;;23.30;1.00;;;;;;5064198;28;20420;-83
2022/10/18 11:40:10;;;;;;;2.60;1.13;;;23.20;1.00;;;;;;5076824;28;20427;-83
2022/10/18 11:42:48;;;;;;;0.63;0.60;;;23.00;1.00;;;;;;5059188;28;20556;-77
2022/10/18 11:45:22;;;;;;;1.50;1.03;;;22.80;1.00;;;;;;5087033;28;20453;-78
2022/10/18 11:48:27;;;;;;;5.30;1.00;;;22.50;1.00;;;;;;5077342;28;20742;-78
2022/10/18 11:51:06;;;;;;;3.23;0.70;;;22.30;1.00;;;;;;5075218;28;20768;-77
2022/10/18 11:54:10;;;;;;;7.20;1.00;;;22.10;1.00;;;;;;5086399;28;20404;-78
2022/10/18 11:57:07;;;;;;;5.33;1.10;;;21.80;1.00;;;;;;5085946;28;20419;-78
2022/10/18 12:00:04;;;;;;;2.20;1.03;;;21.70;1.00;;;;;;5077740;28;20418;-78
2022/10/18 12:02:45;;;;;;;4.20;0.93;;;21.50;1.00;;;;;;5084366;28;20407;-78
2022/10/18 12:12:08;;;;;;;0.77;0.77;;;21.60;1.00;;;;;;5084071;28;20943;-78
2022/10/18 12:18:34;;;;;;;3.80;0.97;;;21.90;1.00;;;;;;5081191;28;20430;-84
2022/10/18 12:28:02;;;;;;;1.20;1.10;;;22.20;1.00;;;;;;5088045;28;20430;-79
2022/10/18 12:30:52;;;;;;;1.10;1.00;;;22.40;1.00;;;;;;5088635;28;20498;-80
2022/10/18 12:33:38;;;;;;;4.97;1.00;;;22.40;1.00;;;;;;5075106;28;20377;-79
2022/10/18 12:36:46;;;;;;;2.87;1.10;;;22.40;1.00;;;;;;5083691;28;20419;-80
2022/10/18 12:39:43;;;;;;;0.87;0.80;;;22.40;1.00;;;;;;5087540;28;20911;-82
2022/10/18 12:49:04;;;;;;;2.30;1.03;;;22.20;1.00;;;;;;5087667;28;20489;-78
2022/10/18 12:52:24;;;;;;;14.47;1.40;;;22.00;1.00;;;;;;5076254;28;20919;-78
2022/10/18 13:01:50;;;;;;;4.43;1.10;;;21.70;1.00;;;;;;5026831;28;20381;-78
2022/10/18 13:04:55;;;;;;;9.00;0.90;;;21.80;1.00;;;;;;5025657;28;20397;-78
2022/10/18 13:07:29;;;;;;;1.67;1.30;;;21.80;1.00;;;;;;5024796;28;20512;-78
2022/10/18 13:13:27;;;;;;;2.90;0.93;;;21.80;1.00;;;;;;5020169;28;20437;-79
2022/10/18 13:19:58;;;;;;;0.80;0.80;;;22.00;1.00;;;;;;5019053;28;20435;-84
2022/10/18 13:22:57;;;;;;;9.17;0.70;;;22.00;1.00;;;;;;5013250;28;20404;-85
2022/10/18 13:29:04;;;;;;;5.50;1.00;;;21.90;1.00;;;;;;5061439;28;20422;-84
2022/10/18 13:38:40;;;;;;;0.90;0.90;;;21.50;1.00;;;;;;5073256;28;20399;-82
2022/10/18 13:41:59;;;;;;;11.10;1.00;;;21.50;1.00;;;;;;5087250;28;20423;-82
2022/10/18 13:44:47;;;;;;;1.53;0.73;;;21.40;1.00;;;;;;5087313;28;20445;-78
2022/10/18 13:48:04;;;;;;;5.90;0.90;;;21.40;1.00;;;;;;5081311;28;20454;-79
2022/10/18 13:50:48;;;;;;;7.50;0.90;;;21.30;1.00;;;;;;5091161;28;20442;-79
2022/10/18 13:56:43;;;;;;;15.23;1.33;;;21.20;1.00;;;;;;5086120;28;20401;-79
2022/10/18 13:59:59;;;;;;;11.20;1.17;;;21.20;1.00;;;;;;5074704;28;20408;-80
2022/10/18 14:05:53;;;;;;;1.40;1.10;;;21.10;1.00;;;;;;5093229;28;20534;-79
2022/10/18 14:18:30;;;;;;;4.53;1.00;;;21.10;1.00;;;;;;5084341;28;20434;-83
2022/10/18 14:27:42;;;;;;;1.07;0.70;;;21.20;1.00;;;;;;5092628;28;20492;-81
2022/10/18 14:30:19;;;;;;;1.47;0.70;;;21.30;1.00;;;;;;5077529;28;20922;-80
2022/10/18 14:32:59;;;;;;;5.60;1.00;;;21.30;1.00;;;;;;5074226;28;20554;-79
2022/10/18 14:42:20;;;;;;;6.33;0.87;;;21.50;1.00;;;;;;5073067;28;20937;-80
2022/10/18 14:45:22;;;;;;;7.70;0.90;;;21.50;1.00;;;;;;5073671;28;20570;-80
2022/10/18 14:47:48;;;;;;;1.07;0.83;;;21.50;1.00;;;;;;5079873;28;20526;-80
2022/10/18 14:50:59;;;;;;;8.53;1.00;;;21.60;1.00;;;;;;5080493;28;20513;-80
2022/10/18 14:56:46;;;;;;;3.83;1.03;;;21.60;1.00;;;;;;5082402;28;20386;-81
2022/10/18 14:59:44;;;;;;;2.07;0.90;;;21.40;1.00;;;;;;5078616;28;20391;-80
2022/10/18 15:02:53;;;;;;;7.27;1.10;;;21.30;1.00;;;;;;5082364;28;20917;-81
2022/10/18 15:05:29;;;;;;;1.20;1.03;;;21.20;1.00;;;;;;5076579;28;20470;-80
2022/10/18 15:08:40;;;;;;;9.90;1.33;;;21.10;1.00;;;;;;5083108;28;20418;-82
2022/10/18 15:11:35;;;;;;;12.33;1.10;;;21.00;1.00;;;;;;5079405;28;20425;-81
2022/10/18 15:14:47;;;;;;;7.30;0.97;;;20.90;1.00;;;;;;5079299;28;20382;-79
2022/10/18 15:27:22;;;;;;;8.70;1.27;;;21.10;1.00;;;;;;5078115;28;20490;-78
2022/10/18 15:29:56;;;;;;;8.57;1.30;;;21.10;1.00;;;;;;5081422;28;20511;-78
2022/10/18 15:36:27;;;;;;;15.53;1.40;;;21.20;1.00;;;;;;5075471;28;20540;-78
2022/10/18 15:39:21;;;;;;;10.13;1.20;;;21.20;1.00;;;;;;5030763;28;20488;-78
2022/10/18 15:42:31;;;;;;;17.00;1.40;;;21.10;1.00;;;;;;5031469;28;20446;-78
2022/10/18 15:45:33;;;;;;;12.73;2.00;;;21.00;1.00;;;;;;4955916;28;20442;-80
2022/10/18 15:58:33;;;;;;;11.00;1.60;;;20.50;1.00;;;;;;4931927;29;20485;-80
2022/10/18 16:01:41;;;;;;;12.83;1.60;;;20.40;1.00;;;;;;4944493;29;20534;-78
2022/10/18 16:04:24;;;;;;;1.93;1.67;;;20.40;1.00;;;;;;4927003;29;20856;-78
2022/10/18 16:10:36;;;;;;;13.90;1.37;;;20.30;1.00;;;;;;4937618;29;20504;-77
2022/10/18 16:13:47;;;;;;;12.60;1.60;;;20.20;1.00;;;;;;4978660;28;20758;-77
2022/10/18 16:16:49;;;;;;;18.87;1.50;;;20.00;1.00;;;;;;4994116;28;20501;-81
2022/10/18 16:19:35;;;;;;;4.97;1.10;;;19.90;1.00;;;;;;4983974;28;20420;-80
2022/10/18 16:22:01;;;;;;;14.17;1.50;;;19.80;1.00;;;;;;5013319;28;21036;-81
2022/10/18 16:24:41;;;;;;;10.07;1.63;;;19.60;1.00;;;;;;5079072;28;20409;-80
2022/10/18 16:27:18;;;;;;;12.00;3.87;;;19.50;1.00;;;;;;5084917;28;20239;-80
2022/10/18 16:29:43;;;;;;;9.43;1.60;;;19.30;1.00;;;;;;5083436;28;20439;-80
2022/10/18 16:32:11;;;;;;;10.93;1.20;;;19.20;1.00;;;;;;5094417;28;20395;-77
2022/10/18 16:37:59;;;;;;;16.33;1.70;;;18.90;1.00;;;;;;5091695;28;20758;-81
2022/10/18 16:40:35;;;;;;;23.67;1.40;;;18.70;1.00;;;;;;5093137;28;20374;-78
2022/10/18 16:43:11;;;;;;;8.33;1.63;;;18.60;1.00;;;;;;5078686;28;20217;-79
2022/10/18 16:45:37;;;;;;;15.37;1.43;;;18.50;1.00;;;;;;5076517;28;20934;-80
2022/10/18 16:51:47;;;;;;;16.67;2.73;;;18.20;1.00;;;;;;5081696;28;20193;-79
2022/10/18 16:54:13;;;;;;;21.37;2.80;;;18.10;1.00;;;;;;5084698;28;20425;-78
2022/10/18 16:56:59;;;;;;;12.70;2.40;;;17.90;1.00;;;;;;5075910;28;20411;-79
2022/10/18 16:59:53;;;;;;;19.13;2.67;;;17.80;1.00;;;;;;5085952;28;20248;-79
2022/10/18 17:02:23;;;;;;;20.73;2.57;;;17.70;1.00;;;;;;5089377;28;20430;-79
2022/10/18 17:04:49;;;;;;;12.80;1.87;;;17.60;1.00;;;;;;5081164;28;20454;-76
2022/10/18 17:07:47;;;;;;;11.03;2.10;;;17.50;1.00;;;;;;5074369;28;20394;-77
2022/10/18 17:10:38;;;;;;;15.17;1.83;;;17.40;1.00;;;;;;5086055;28;20537;-77
2022/10/18 17:13:04;;;;;;;33.53;2.10;;;17.30;1.00;;;;;;5079407;28;20494;-78
2022/10/18 17:15:35;;;;;;;16.97;1.97;;;17.20;1.00;;;;;;5093173;28;20492;-77
2022/10/18 17:18:21;;;;;;;14.43;1.70;;;17.10;1.00;;;;;;5090877;28;20407;-78
2022/10/18 17:21:06;;;;;;;7.70;2.13;;;17.00;1.00;;;;;;5080680;28;20408;-77
2022/10/18 17:23:36;;;;;;;13.90;1.50;;;17.00;1.00;;;;;;5085148;28;20407;-77
2022/10/18 17:26:29;;;;;;;11.30;2.30;;;16.90;1.00;;;;;;5091460;28;20453;-77
2022/10/18 17:29:01;;;;;;;18.20;2.80;;;16.80;2.60;;;;;;5082722;28;20983;-77
2022/10/18 17:32:17;;;;;;;9.57;1.87;;;16.80;2.80;;;;;;5080396;28;20472;-78
2022/10/18 17:35:05;;;;;;;12.50;2.70;;;16.70;4.10;;;;;;5087098;28;20422;-77
2022/10/18 17:37:36;;;;;;;16.23;2.83;;;16.60;5.20;;;;;;5075303;28;20443;-77
2022/10/18 17:40:18;;;;;;;18.27;2.60;;;16.50;6.30;;;;;;5081773;28;20418;-81
2022/10/18 17:43:35;;;;;;;36.70;2.40;;;16.50;7.70;;;;;;5081027;28;20460;-83
2022/10/18 17:46:00;;;;;;;10.53;2.60;;;16.40;9.30;;;;;;5080364;28;20443;-76
2022/10/18 17:48:29;;;;;;;21.73;2.70;;;16.40;11.30;;;;;;5073694;28;20410;-80
2022/10/18 17:51:04;;;;;;;13.33;2.27;;;16.30;12.20;;;;;;5087805;28;20179;-79
2022/10/18 17:53:31;;;;;;;19.43;2.13;;;16.30;13.80;;;;;;5080637;28;20901;-79
2022/10/18 17:56:17;;;;;;;23.50;2.27;;;16.20;15.50;;;;;;5092578;28;20919;-77
2022/10/18 17:58:44;;;;;;;19.60;2.77;;;16.20;16.40;;;;;;5083010;28;20403;-77
2022/10/18 18:01:18;;;;;;;13.53;2.40;;;16.10;16.50;;;;;;5092108;28;20758;-77
2022/10/18 18:03:46;;;;;;;8.67;2.10;;;16.10;17.70;;;;;;5093618;28;20417;-78
2022/10/18 18:09:33;;;;;;;22.57;2.63;;;16.10;21.80;;;;;;5090427;28;20363;-77
2022/10/18 18:12:05;;;;;;;15.83;2.20;;;16.00;21.00;;;;;;5093648;28;20737;-78
2022/10/18 18:14:48;;;;;;;13.40;2.30;;;15.90;23.30;;;;;;5076775;28;20198;-77
2022/10/18 18:17:23;;;;;;;10.33;2.40;;;15.90;24.90;;;;;;5077654;28;20406;-78
2022/10/18 18:19:53;;;;;;;12.03;2.60;;;15.80;24.90;;;;;;5078985;28;20409;-85
2022/10/18 18:22:23;;;;;;;24.33;2.90;;;15.80;25.40;;;;;;5085664;28;20441;-84
2022/10/18 18:31:55;;;;;;;9.00;2.80;;;15.70;28.60;;;;;;5080539;28;20445;-86
2022/10/18 18:34:41;;;;;;;19.63;2.60;;;15.70;31.30;;;;;;5084779;28;20421;-86
2022/10/18 18:37:11;;;;;;;17.57;2.60;;;15.70;37.60;;;;;;5081775;28;20429;-87
2022/10/18 18:40:17;;;;;;;23.33;3.20;;;15.70;38.80;;;;;;5080525;28;20437;-89
2022/10/18 18:42:59;;;;;;;36.53;3.67;;;15.60;40.40;;;;;;5076843;28;20376;-90
2022/10/18 18:45:25;;;;;;;16.30;2.60;;;15.60;38.70;;;;;;5076548;28;20476;-89
2022/10/18 18:47:51;;;;;;;16.20;2.87;;;15.50;35.60;;;;;;5095769;28;20943;-89
2022/10/18 18:50:36;;;;;;;21.97;3.93;;;15.50;37.50;;;;;;5096642;28;20249;-85
2022/10/18 18:53:01;;;;;;;10.40;3.53;;;15.40;41.30;;;;;;5091444;28;20653;-83
2022/10/18 18:55:27;;;;;;;22.07;3.50;;;15.40;41.60;;;;;;5081275;28;20457;-82
2022/10/18 18:57:59;;;;;;;9.53;3.30;;;15.40;42.20;;;;;;5078895;28;20647;-83
2022/10/18 19:07:29;;;;;;;26.27;3.80;;;15.20;46.50;;;;;;5077193;28;20428;-89
2022/10/18 19:10:48;;;;;;;18.33;3.60;;;15.20;46.50;;;;;;5077434;28;20534;-88
2022/10/18 19:13:29;;;;;;;11.67;3.50;;;15.20;46.60;;;;;;5092027;28;20418;-85
2022/10/18 19:20:11;;;;;;;25.17;3.87;;;15.10;46.60;;;;;;5081687;28;20427;-78
2022/10/18 19:22:42;;;;;;;22.17;3.40;;;15.00;46.30;;;;;;5090485;28;20418;-80
2022/10/18 19:32:29;;;;;;;6.87;3.97;;;15.10;46.60;;;;;;5078381;28;20738;-79
2022/10/18 19:38:53;;;;;;;20.53;3.40;;;15.10;46.40;;;;;;5075980;28;20810;-91
2022/10/18 19:41:59;;;;;;;9.10;3.70;;;15.10;46.40;;;;;;5081013;28;20452;-91
2022/10/18 19:47:48;;;;;;;25.53;4.33;;;15.20;46.60;;;;;;5076469;28;20414;-91
2022/10/18 19:57:47;;;;;;;12.30;4.03;;;15.10;46.40;;;;;;5088641;28;20915;-80